Time;durP1;ratioP1;P1;durP2;ratioP2;P2;SDS_P1;SDS_P2;PMS_P1;PMS_P2;Temp;Humidity;BMP_temperature;BMP_pressure;BME280_temperature;BME280_humidity;BME280_pressure;Samples;Min_cycle;Max_cycle;Signal;HPM_P1;HPM_P2
2022/12/24 00:00:26;;;;;;;119.88;11.10;;;;;;;9.91;100.00;100336.59;4991524;28;20038;-81
2022/12/24 00:02:52;;;;;;;102.07;10.75;;;;;;;9.81;100.00;100350.19;4993492;28;20026;-80
2022/12/24 00:05:17;;;;;;;104.63;11.68;;;;;;;9.86;100.00;100350.66;4989586;28;20045;-80
2022/12/24 00:07:43;;;;;;;152.93;12.63;;;;;;;9.70;100.00;100342.88;4980559;28;20050;-81
2022/12/24 00:10:09;;;;;;;106.53;10.75;;;;;;;9.82;100.00;100357.41;4988191;28;20039;-81
2022/12/24 00:12:35;;;;;;;131.23;11.15;;;;;;;9.75;100.00;100358.88;4966750;28;20121;-81
2022/12/24 00:15:00;;;;;;;87.82;10.77;;;;;;;9.78;100.00;100350.44;4996312;28;20124;-81
2022/12/24 00:17:26;;;;;;;102.75;13.13;;;;;;;9.80;100.00;100355.78;4989102;28;20042;-81
2022/12/24 00:19:51;;;;;;;111.15;11.25;;;;;;;9.78;100.00;100364.09;4981564;28;20145;-81
2022/12/24 00:22:17;;;;;;;120.35;11.73;;;;;;;9.79;100.00;100351.28;4964528;28;20067;-81
2022/12/24 00:24:42;;;;;;;131.00;9.18;;;;;;;9.85;100.00;100356.25;4996386;28;21078;-81
2022/12/24 00:27:08;;;;;;;99.30;8.90;;;;;;;9.92;100.00;100362.97;4976351;28;20031;-79
2022/12/24 00:29:33;;;;;;;109.63;10.25;;;;;;;9.83;100.00;100363.72;5004004;28;20035;-80
2022/12/24 00:31:59;;;;;;;104.93;8.43;;;;;;;9.77;100.00;100369.69;4960685;28;20038;-81
2022/12/24 00:34:25;;;;;;;120.00;10.80;;;;;;;9.81;100.00;100371.19;4972436;28;20113;-81
2022/12/24 00:36:51;;;;;;;120.70;8.38;;;;;;;9.68;100.00;100354.94;4996819;28;20042;-81
2022/12/24 00:39:17;;;;;;;96.55;8.80;;;;;;;9.85;100.00;100368.03;4996134;28;20037;-81
2022/12/24 00:41:43;;;;;;;111.38;9.10;;;;;;;9.83;100.00;100359.09;4987780;28;20074;-81
2022/12/24 00:44:09;;;;;;;107.03;8.20;;;;;;;9.90;100.00;100374.03;4977745;28;20084;-80
2022/12/24 00:46:36;;;;;;;91.55;8.07;;;;;;;9.80;100.00;100380.38;4970283;28;20078;-81
2022/12/24 00:49:03;;;;;;;115.32;9.23;;;;;;;9.88;100.00;100391.53;4992400;28;20068;-81
2022/12/24 00:51:29;;;;;;;85.80;8.20;;;;;;;9.90;100.00;100386.81;4980559;28;20034;-81
2022/12/24 00:53:54;;;;;;;87.32;8.50;;;;;;;9.94;100.00;100391.03;4987390;28;20086;-81
2022/12/24 00:56:20;;;;;;;132.45;10.88;;;;;;;9.89;100.00;100398.75;4945144;28;20490;-81
2022/12/24 00:58:46;;;;;;;119.28;8.13;;;;;;;9.91;100.00;100416.75;4993398;28;20041;-81
2022/12/24 01:01:12;;;;;;;121.03;9.40;;;;;;;9.91;100.00;100416.75;4978699;28;20039;-81
2022/12/24 01:03:37;;;;;;;102.70;8.60;;;;;;;9.87;100.00;100403.47;4989266;28;20043;-81
2022/12/24 01:06:21;;;;;;;121.20;10.55;;;;;;;9.74;100.00;100415.44;4962144;28;20092;-81
2022/12/24 01:08:50;;;;;;;114.07;10.50;;;;;;;9.85;100.00;100411.78;4996788;28;20046;-81
2022/12/24 01:11:16;;;;;;;119.25;9.52;;;;;;;9.80;100.00;100410.47;4963555;28;20406;-81
2022/12/24 01:13:42;;;;;;;101.32;9.98;;;;;;;9.78;100.00;100420.66;4989597;28;20042;-81
2022/12/24 01:16:18;;;;;;;102.63;10.43;;;;;;;9.75;100.00;100421.78;4978585;28;20030;-81
2022/12/24 01:18:44;;;;;;;105.90;8.90;;;;;;;9.70;100.00;100430.34;4992867;28;20070;-81
2022/12/24 01:21:10;;;;;;;113.90;9.38;;;;;;;9.70;100.00;100430.34;4990696;28;20050;-81
2022/12/24 01:23:35;;;;;;;108.20;10.38;;;;;;;9.74;100.00;100434.56;4978751;28;20038;-81
2022/12/24 01:26:03;;;;;;;91.80;10.02;;;;;;;9.77;100.00;100438.03;4968802;28;20062;-81
2022/12/24 01:28:28;;;;;;;108.35;11.00;;;;;;;9.75;100.00;100435.44;4963235;28;20046;-81
2022/12/24 01:30:54;;;;;;;105.38;9.38;;;;;;;9.81;100.00;100439.53;4973992;28;20039;-81
2022/12/24 01:33:19;;;;;;;81.13;10.95;;;;;;;9.69;100.00;100423.16;4994095;28;20129;-81
2022/12/24 01:35:45;;;;;;;113.88;10.68;;;;;;;9.65;100.00;100442.66;4992943;28;20034;-81
2022/12/24 01:38:11;;;;;;;86.13;8.45;;;;;;;9.73;100.00;100454.69;4987755;28;20067;-81
2022/12/24 01:43:26;;;;;;;81.13;10.82;;;;;;;9.59;100.00;100460.41;4994446;28;20034;-81
2022/12/24 01:45:59;;;;;;;99.22;10.30;;;;;;;9.59;100.00;100462.28;4962268;28;20050;-81
2022/12/24 01:48:44;;;;;;;96.82;9.35;;;;;;;9.45;100.00;100452.50;4996674;28;20035;-81
2022/12/24 01:51:09;;;;;;;100.20;9.05;;;;;;;9.48;100.00;100460.44;4996006;28;20037;-81
2022/12/24 01:53:38;;;;;;;113.65;10.32;;;;;;;9.51;100.00;100471.09;4992687;28;20041;-81
2022/12/24 01:56:05;;;;;;;82.60;9.73;;;;;;;9.47;100.00;100466.91;4992532;28;20037;-81
2022/12/24 01:58:32;;;;;;;99.00;10.57;;;;;;;9.42;100.00;100471.88;4980015;28;20497;-81
2022/12/24 02:00:58;;;;;;;96.45;10.63;;;;;;;9.35;100.00;100474.22;4979048;28;20026;-81
2022/12/24 02:03:23;;;;;;;87.72;12.02;;;;;;;9.33;100.00;100462.53;4992664;28;20386;-81
2022/12/24 02:05:54;;;;;;;95.50;10.25;;;;;;;9.33;100.00;100477.09;4977779;28;20077;-81
2022/12/24 02:08:23;;;;;;;105.93;12.15;;;;;;;9.36;100.00;100481.41;4991907;28;20042;-81
2022/12/24 02:10:49;;;;;;;91.03;9.10;;;;;;;9.42;100.00;100482.81;4973492;28;20045;-81
2022/12/24 02:13:18;;;;;;;114.28;12.23;;;;;;;9.38;100.00;100485.78;4992141;28;20034;-81
2022/12/24 02:15:43;;;;;;;118.15;9.38;;;;;;;9.35;100.00;100490.63;4991096;28;20034;-81
2022/12/24 02:18:18;;;;;;;99.70;10.02;;;;;;;9.35;100.00;100483.28;4978209;28;20264;-81
2022/12/24 02:21:14;;;;;;;108.68;9.65;;;;;;;9.39;100.00;100489.38;4978583;28;20155;-81
2022/12/24 02:23:58;;;;;;;101.38;9.35;;;;;;;9.42;100.00;100482.81;4989767;28;20470;-81
2022/12/24 02:26:30;;;;;;;117.25;9.88;;;;;;;9.47;100.00;100484.16;4990403;28;20038;-81
2022/12/24 02:29:17;;;;;;;119.93;9.93;;;;;;;9.55;100.00;100498.06;4990459;28;20077;-81
2022/12/24 02:31:51;;;;;;;100.38;9.85;;;;;;;9.51;100.00;100502.06;4964288;28;20030;-81
2022/12/24 02:34:29;;;;;;;117.82;10.70;;;;;;;9.54;100.00;100503.66;4984167;28;20034;-81
2022/12/24 02:37:14;;;;;;;109.03;11.85;;;;;;;9.61;100.00;100502.19;4991805;28;20026;-81
2022/12/24 02:39:52;;;;;;;120.30;10.65;;;;;;;9.68;100.00;100505.28;4990051;28;20038;-81
2022/12/24 02:42:25;;;;;;;130.02;11.30;;;;;;;9.69;100.00;100504.28;4993495;28;20358;-81
2022/12/24 02:44:58;;;;;;;103.00;10.93;;;;;;;9.77;100.00;100495.47;4994806;28;20148;-81
2022/12/24 02:47:30;;;;;;;100.88;10.57;;;;;;;9.75;100.00;100510.09;4985574;28;20054;-81
2022/12/24 02:49:55;;;;;;;114.25;10.07;;;;;;;9.81;100.00;100516.09;4993336;28;20067;-81
2022/12/24 02:52:39;;;;;;;135.82;10.43;;;;;;;9.88;100.00;100512.72;4977518;28;20034;-81
2022/12/24 02:55:18;;;;;;;91.88;10.48;;;;;;;9.90;100.00;100505.28;4995443;28;20026;-81
2022/12/24 02:57:52;;;;;;;121.72;8.73;;;;;;;10.06;100.00;100515.81;4996194;28;20066;-81
2022/12/24 03:00:21;;;;;;;97.93;9.98;;;;;;;10.15;100.00;100510.56;4978668;28;20038;-81
2022/12/24 03:03:06;;;;;;;90.40;9.45;;;;;;;10.16;100.00;100504.13;4996821;28;20042;-81
2022/12/24 03:05:59;;;;;;;116.93;10.43;;;;;;;10.19;100.00;100507.47;4980354;28;20031;-81
2022/12/24 03:08:35;;;;;;;95.07;7.95;;;;;;;10.15;100.00;100502.38;4985087;28;20045;-81
2022/12/24 03:11:07;;;;;;;90.40;7.70;;;;;;;10.39;100.00;100516.75;4984942;28;20026;-81
2022/12/24 03:13:33;;;;;;;110.15;10.00;;;;;;;10.31;100.00;100513.75;4995914;28;20038;-81
2022/12/24 03:16:00;;;;;;;108.20;8.65;;;;;;;10.27;100.00;100504.09;4987846;28;20034;-81
2022/12/24 03:18:27;;;;;;;122.88;8.27;;;;;;;10.14;100.00;100508.84;4990425;28;20132;-81
2022/12/24 03:20:59;;;;;;;113.53;7.88;;;;;;;10.12;100.00;100507.09;4988608;28;20030;-81
2022/12/24 03:23:25;;;;;;;96.03;6.97;;;;;;;10.06;100.00;100496.66;4968108;28;20112;-81
2022/12/24 03:25:52;;;;;;;122.32;8.57;;;;;;;10.04;100.00;100497.81;4978007;28;20058;-81
2022/12/24 03:28:19;;;;;;;87.65;8.10;;;;;;;10.05;100.00;100514.09;4988905;28;20069;-80
2022/12/24 03:30:47;;;;;;;103.63;9.15;;;;;;;9.88;100.00;100500.91;4979193;28;20686;-81
2022/12/24 03:33:13;;;;;;;92.82;10.27;;;;;;;9.86;100.00;100508.38;4993653;28;20437;-81
2022/12/24 03:35:39;;;;;;;110.95;9.00;;;;;;;9.98;100.00;100515.56;5006883;28;20023;-80
2022/12/24 03:38:04;;;;;;;96.80;7.82;;;;;;;10.02;100.00;100522.53;5007308;28;20094;-81
2022/12/24 03:40:30;;;;;;;118.47;7.63;;;;;;;10.06;100.00;100514.94;4990629;28;20116;-80
2022/12/24 03:42:55;;;;;;;86.93;8.18;;;;;;;9.96;100.00;100525.78;4968931;28;20122;-80
2022/12/24 03:45:21;;;;;;;66.40;7.68;;;;;;;10.02;100.00;100535.31;4979572;28;20050;-81
2022/12/24 03:47:46;;;;;;;104.20;9.43;;;;;;;10.04;100.00;100536.94;4987597;28;20052;-81
2022/12/24 03:50:12;;;;;;;105.25;9.20;;;;;;;10.02;100.00;100532.59;4973943;28;20038;-81
2022/12/24 03:52:37;;;;;;;83.78;7.57;;;;;;;10.04;100.00;100534.22;4996844;28;20098;-81
2022/12/24 03:55:03;;;;;;;81.40;6.50;;;;;;;10.02;100.00;100533.47;4964240;28;20034;-81
2022/12/24 03:57:29;;;;;;;96.63;6.88;;;;;;;10.12;100.00;100539.06;4996291;28;20037;-81
2022/12/24 03:59:54;;;;;;;93.63;8.40;;;;;;;10.04;100.00;100523.28;4989724;28;20047;-81
2022/12/24 04:02:20;;;;;;;84.78;8.90;;;;;;;10.08;100.00;100546.66;4997705;28;20508;-81
2022/12/24 04:04:45;;;;;;;97.93;7.15;;;;;;;10.08;100.00;100541.19;4980034;28;20695;-81
2022/12/24 04:07:11;;;;;;;80.32;6.53;;;;;;;10.09;100.00;100544.78;5011013;28;20070;-81
2022/12/24 04:09:37;;;;;;;49.05;7.43;;;;;;;10.09;100.00;100537.44;4975388;28;20042;-81
2022/12/24 04:12:03;;;;;;;60.72;6.35;;;;;;;10.09;100.00;100553.00;4962718;28;20035;-81
2022/12/24 04:14:29;;;;;;;72.88;7.10;;;;;;;10.05;100.00;100537.81;4979728;28;20036;-81
2022/12/24 04:16:54;;;;;;;79.05;8.80;;;;;;;10.10;100.00;100547.41;4962683;28;20128;-81
2022/12/24 04:19:20;;;;;;;85.40;7.10;;;;;;;10.08;100.00;100553.97;4996316;28;20038;-81
2022/12/24 04:21:45;;;;;;;80.38;5.88;;;;;;;10.02;100.00;100569.03;4963381;28;20421;-81
2022/12/24 04:24:11;;;;;;;81.00;6.53;;;;;;;9.99;100.00;100549.28;4980399;28;20109;-81
2022/12/24 04:26:36;;;;;;;70.68;6.03;;;;;;;10.06;100.00;100570.50;4990952;28;20049;-81
2022/12/24 04:29:01;;;;;;;73.28;5.55;;;;;;;9.92;100.00;100540.72;4995333;28;20456;-81
2022/12/24 04:31:27;;;;;;;63.25;5.65;;;;;;;10.07;100.00;100568.66;4981533;28;20038;-81
2022/12/24 04:33:53;;;;;;;87.47;7.63;;;;;;;10.06;100.00;100566.91;4980683;28;20040;-80
2022/12/24 04:36:19;;;;;;;100.40;7.22;;;;;;;10.08;100.00;100571.28;4975715;28;20095;-81
2022/12/24 04:38:46;;;;;;;79.93;7.72;;;;;;;10.03;100.00;100569.91;4985520;28;20045;-80
2022/12/24 04:41:17;;;;;;;77.43;6.32;;;;;;;10.02;100.00;100562.69;4978250;28;20034;-80
2022/12/24 04:43:43;;;;;;;88.78;7.57;;;;;;;9.97;100.00;100568.56;4992627;28;20034;-81
2022/12/24 04:46:14;;;;;;;76.32;7.63;;;;;;;10.09;100.00;100575.75;4988592;28;20559;-81
2022/12/24 04:48:40;;;;;;;69.85;6.25;;;;;;;10.00;100.00;100570.16;4995495;28;20030;-81
2022/12/24 04:51:08;;;;;;;75.72;6.35;;;;;;;10.01;100.00;100561.81;4993265;28;20389;-81
2022/12/24 04:53:34;;;;;;;92.03;8.10;;;;;;;9.99;100.00;100580.22;4989245;28;20058;-81
2022/12/24 04:56:00;;;;;;;88.43;7.07;;;;;;;9.98;100.00;100574.88;4980858;28;20031;-81
2022/12/24 04:58:25;;;;;;;65.03;7.90;;;;;;;9.99;100.00;100576.63;4964498;28;20512;-81
2022/12/24 05:00:51;;;;;;;82.45;6.78;;;;;;;9.97;100.00;100573.13;4996792;28;20042;-81
2022/12/24 05:03:16;;;;;;;80.55;6.35;;;;;;;9.91;100.00;100566.31;4979071;28;20035;-81
2022/12/24 05:05:42;;;;;;;98.10;6.95;;;;;;;9.97;100.00;100567.66;4966593;28;20165;-81
2022/12/24 05:08:07;;;;;;;75.97;6.47;;;;;;;9.94;100.00;100574.25;4948317;28;20670;-81
2022/12/24 05:10:33;;;;;;;69.75;6.72;;;;;;;9.94;100.00;100568.78;4983482;28;20035;-81
2022/12/24 05:12:58;;;;;;;109.00;8.80;;;;;;;9.92;100.00;100573.53;4954773;28;20386;-81
2022/12/24 05:15:24;;;;;;;88.13;7.30;;;;;;;9.98;100.00;100588.56;4977682;28;20034;-81
2022/12/24 05:17:49;;;;;;;95.70;8.80;;;;;;;10.04;100.00;100588.06;4991551;28;20026;-81
2022/12/24 05:20:15;;;;;;;97.28;8.88;;;;;;;9.94;100.00;100594.28;4976655;28;20039;-81
2022/12/24 05:28:15;;;;;;;115.22;10.05;;;;;;;9.91;100.00;100591.78;4991686;28;20046;-81
2022/12/24 05:30:40;;;;;;;73.30;7.63;;;;;;;9.85;100.00;100585.94;4991644;28;20040;-81
2022/12/24 05:33:06;;;;;;;97.72;9.95;;;;;;;9.97;100.00;100595.91;4961396;28;20046;-81
2022/12/24 05:35:31;;;;;;;99.00;9.18;;;;;;;9.98;100.00;100583.09;4985677;28;20039;-81
2022/12/24 05:37:57;;;;;;;91.13;7.35;;;;;;;9.96;100.00;100605.09;4972947;28;20038;-81
2022/12/24 05:40:23;;;;;;;85.22;7.38;;;;;;;9.95;100.00;100586.91;4994801;28;20088;-81
2022/12/24 05:42:49;;;;;;;83.80;7.38;;;;;;;9.92;100.00;100593.53;4975159;28;20117;-81
2022/12/24 05:45:15;;;;;;;89.28;8.98;;;;;;;9.88;100.00;100591.16;4977299;28;20046;-81
2022/12/24 05:47:40;;;;;;;100.65;8.40;;;;;;;9.88;100.00;100593.91;4991387;28;20034;-81
2022/12/24 05:50:06;;;;;;;66.03;8.52;;;;;;;9.86;100.00;100594.03;4974918;28;20031;-81
2022/12/24 05:52:32;;;;;;;104.13;8.45;;;;;;;9.87;100.00;100606.72;4989737;28;20076;-81
2022/12/24 05:54:57;;;;;;;113.35;10.10;;;;;;;9.80;100.00;100610.03;4995541;28;20038;-81
2022/12/24 05:57:23;;;;;;;76.63;7.13;;;;;;;9.80;100.00;100615.53;4963577;28;20185;-81
2022/12/24 05:59:48;;;;;;;90.63;8.13;;;;;;;9.83;100.00;100626.22;4965945;28;20034;-81
2022/12/24 06:02:13;;;;;;;105.78;8.15;;;;;;;9.83;100.00;100629.81;4955364;28;20094;-81
2022/12/24 06:04:39;;;;;;;121.28;9.48;;;;;;;9.86;100.00;100632.31;4960707;28;20125;-81
2022/12/24 06:07:04;;;;;;;88.78;9.38;;;;;;;9.82;100.00;100628.09;4984392;28;20034;-81
2022/12/24 06:09:30;;;;;;;97.85;9.95;;;;;;;9.83;100.00;100626.22;4978433;28;20034;-81
2022/12/24 06:11:55;;;;;;;81.57;7.28;;;;;;;9.90;100.00;100632.91;4964663;28;20035;-81
2022/12/24 06:14:21;;;;;;;101.38;10.70;;;;;;;10.01;100.00;100643.00;4962936;28;20045;-81
2022/12/24 06:16:46;;;;;;;97.75;12.20;;;;;;;9.97;100.00;100642.41;4965979;28;20058;-81
2022/12/24 06:19:11;;;;;;;89.88;9.50;;;;;;;9.90;100.00;100633.81;4964726;28;20031;-81
2022/12/24 06:21:37;;;;;;;82.50;8.32;;;;;;;9.91;100.00;100630.06;4966949;28;20030;-82
2022/12/24 06:24:03;;;;;;;95.80;9.82;;;;;;;9.82;100.00;100636.28;4953952;28;20092;-81
2022/12/24 06:26:28;;;;;;;99.45;9.50;;;;;;;9.82;100.00;100641.75;4964800;28;20097;-81
2022/12/24 06:28:54;;;;;;;76.43;7.63;;;;;;;9.79;100.00;100638.38;4978378;28;20034;-82
2022/12/24 06:31:21;;;;;;;94.50;8.60;;;;;;;9.77;100.00;100640.38;4987406;28;20509;-82
2022/12/24 06:33:47;;;;;;;65.43;8.13;;;;;;;9.75;100.00;100641.34;4976704;28;20038;-82
2022/12/24 06:36:24;;;;;;;82.82;7.57;;;;;;;9.78;100.00;100642.97;4995701;28;20038;-82
2022/12/24 06:38:51;;;;;;;73.45;10.15;;;;;;;9.74;100.00;100646.97;4966893;28;20437;-82
2022/12/24 06:41:17;;;;;;;76.40;7.90;;;;;;;9.74;100.00;100653.28;4973648;28;20043;-81
2022/12/24 06:43:48;;;;;;;79.00;10.13;;;;;;;9.70;100.00;100654.50;4962967;28;20131;-81
2022/12/24 06:46:14;;;;;;;115.47;10.20;;;;;;;9.62;100.00;100650.66;5004689;28;20604;-81
2022/12/24 06:48:39;;;;;;;91.90;8.55;;;;;;;9.55;100.00;100655.72;4991047;28;20038;-82
2022/12/24 06:51:05;;;;;;;83.20;8.55;;;;;;;9.54;100.00;100654.88;4974842;28;20042;-81
2022/12/24 06:53:31;;;;;;;89.53;9.32;;;;;;;9.47;100.00;100663.66;4959356;28;20038;-82
2022/12/24 06:56:01;;;;;;;109.97;9.60;;;;;;;9.52;100.00;100661.44;4994082;28;20029;-82
2022/12/24 06:58:30;;;;;;;96.38;8.85;;;;;;;9.55;100.00;100663.94;4976549;28;20045;-81
2022/12/24 07:00:56;;;;;;;101.22;10.20;;;;;;;9.50;100.00;100661.56;4993138;28;20045;-83
2022/12/24 07:03:21;;;;;;;89.22;9.38;;;;;;;9.45;100.00;100663.78;4963693;28;20046;-83
2022/12/24 07:05:46;;;;;;;87.03;10.45;;;;;;;9.21;100.00;100633.75;4963160;28;20084;-82
2022/12/24 07:08:12;;;;;;;109.47;10.30;;;;;;;9.29;100.00;100655.03;4977426;28;20042;-82
2022/12/24 07:10:37;;;;;;;109.13;10.88;;;;;;;9.46;100.00;100676.47;4985921;28;20034;-79
2022/12/24 07:13:03;;;;;;;85.20;8.10;;;;;;;9.47;100.00;100683.66;4976914;28;20038;-83
2022/12/24 07:15:28;;;;;;;96.78;11.05;;;;;;;9.47;100.00;100685.53;4971784;28;20083;-83
2022/12/24 07:17:53;;;;;;;98.63;10.45;;;;;;;9.45;100.00;100687.50;4960194;28;20490;-82
2022/12/24 07:20:19;;;;;;;102.43;10.73;;;;;;;9.45;100.00;100692.97;4980553;28;20126;-82
2022/12/24 07:22:44;;;;;;;107.15;8.63;;;;;;;9.43;100.00;100703.13;4964649;28;20042;-81
2022/12/24 07:25:10;;;;;;;95.57;11.27;;;;;;;9.45;100.00;100695.72;4989691;28;20047;-81
2022/12/24 07:27:37;;;;;;;91.43;10.43;;;;;;;9.34;100.00;100700.13;4989872;28;20038;-81
2022/12/24 07:30:03;;;;;;;105.50;10.43;;;;;;;9.37;100.00;100696.28;4995315;28;20057;-81
2022/12/24 07:32:29;;;;;;;81.55;10.15;;;;;;;9.38;100.00;100704.38;4991571;28;20034;-82
2022/12/24 07:34:54;;;;;;;103.72;10.32;;;;;;;9.35;100.00;100710.06;4962688;28;20041;-81
2022/12/24 07:37:22;;;;;;;110.45;9.55;;;;;;;9.29;100.00;100691.41;4958314;28;20041;-82
2022/12/24 07:39:48;;;;;;;101.38;10.23;;;;;;;9.42;100.00;100721.41;4966462;28;20097;-82
2022/12/24 07:42:13;;;;;;;94.70;9.68;;;;;;;9.48;100.00;100731.00;4944382;28;20038;-82
2022/12/24 07:44:39;;;;;;;125.20;10.23;;;;;;;9.41;100.00;100722.38;4960956;28;20439;-82
2022/12/24 07:47:04;;;;;;;115.88;9.35;;;;;;;9.47;100.00;100729.25;4945514;28;20061;-82
2022/12/24 07:49:30;;;;;;;103.05;9.63;;;;;;;9.44;100.00;100726.75;4952189;28;20103;-81
2022/12/24 07:51:55;;;;;;;107.10;11.65;;;;;;;9.56;100.00;100734.88;4960635;28;20046;-81
2022/12/24 07:54:20;;;;;;;137.25;11.98;;;;;;;9.53;100.00;100724.19;4992690;28;20391;-81
2022/12/24 07:56:46;;;;;;;134.75;9.82;;;;;;;9.68;100.00;100734.94;4962975;28;20149;-81
2022/12/24 07:59:12;;;;;;;108.05;9.65;;;;;;;9.73;100.00;100747.22;4975994;28;20081;-81
2022/12/24 08:01:38;;;;;;;136.52;11.10;;;;;;;9.72;100.00;100744.63;4993983;28;20030;-81
2022/12/24 08:04:04;;;;;;;121.97;9.70;;;;;;;9.81;100.00;100762.19;4993763;28;20389;-81
2022/12/24 08:06:29;;;;;;;117.47;11.82;;;;;;;9.64;100.00;100755.28;4992999;28;20049;-81
2022/12/24 08:08:55;;;;;;;106.85;10.80;;;;;;;9.70;100.00;100766.59;4974061;28;20038;-81
2022/12/24 08:11:20;;;;;;;103.50;9.18;;;;;;;9.70;100.00;100763.88;4976975;28;20035;-81
2022/12/24 08:13:45;;;;;;;116.97;10.45;;;;;;;9.73;100.00;100776.44;4974240;28;20045;-81
2022/12/24 08:16:11;;;;;;;126.35;10.27;;;;;;;9.77;100.00;100785.28;4956043;28;20424;-81
2022/12/24 08:18:36;;;;;;;103.15;11.25;;;;;;;9.75;100.00;100772.59;4987943;28;20053;-81
2022/12/24 08:21:02;;;;;;;76.10;8.85;;;;;;;9.73;100.00;100785.50;5007910;28;20057;-81
2022/12/24 08:23:28;;;;;;;102.00;8.35;;;;;;;9.82;100.00;100789.41;4943774;28;20104;-81
2022/12/24 08:25:53;;;;;;;108.28;12.23;;;;;;;9.81;100.00;100803.22;4990778;28;20129;-81
2022/12/24 08:28:19;;;;;;;83.38;8.00;;;;;;;9.76;100.00;100789.88;4981992;28;20038;-81
2022/12/24 08:30:48;;;;;;;114.45;8.93;;;;;;;9.90;100.00;100802.47;4981836;28;20066;-81
2022/12/24 08:33:13;;;;;;;101.93;8.23;;;;;;;9.92;100.00;100806.84;4962039;28;20038;-81
2022/12/24 08:35:39;;;;;;;108.78;9.25;;;;;;;9.88;100.00;100815.41;5000461;28;20026;-80
2022/12/24 08:38:04;;;;;;;103.85;9.27;;;;;;;9.93;100.00;100810.44;4962564;28;20054;-81
2022/12/24 08:40:30;;;;;;;94.93;8.88;;;;;;;9.82;100.00;100803.09;4982277;28;20049;-81
2022/12/24 08:42:55;;;;;;;102.65;8.52;;;;;;;9.96;100.00;100803.88;4998255;28;20477;-81
2022/12/24 08:45:21;;;;;;;105.97;9.57;;;;;;;10.01;100.00;100809.88;4980691;28;20109;-81
2022/12/24 08:47:46;;;;;;;83.90;7.53;;;;;;;10.01;100.00;100808.00;4998557;28;20053;-81
2022/12/24 08:50:12;;;;;;;101.20;8.13;;;;;;;10.03;100.00;100814.22;4998055;28;20106;-81
2022/12/24 08:52:38;;;;;;;80.80;7.68;;;;;;;10.04;100.00;100809.63;4997457;28;20062;-81
2022/12/24 08:55:04;;;;;;;109.90;9.93;;;;;;;9.91;100.00;100810.56;4981315;28;20031;-81
2022/12/24 08:57:29;;;;;;;89.43;8.75;;;;;;;10.00;100.00;100816.31;4980326;28;20121;-81
2022/12/24 08:59:55;;;;;;;102.60;8.05;;;;;;;9.93;100.00;100807.72;4998314;28;20026;-81
2022/12/24 09:02:20;;;;;;;99.43;8.18;;;;;;;9.84;100.00;100808.41;4998286;28;20038;-81
2022/12/24 09:04:46;;;;;;;98.82;8.85;;;;;;;9.88;100.00;100818.13;4981804;28;20053;-81
2022/12/24 09:07:11;;;;;;;109.38;9.20;;;;;;;9.83;100.00;100834.91;4982184;28;20073;-81
2022/12/24 09:09:37;;;;;;;94.35;8.30;;;;;;;9.87;100.00;100832.78;4981357;28;20041;-82
2022/12/24 09:12:06;;;;;;;99.53;8.23;;;;;;;9.90;100.00;100841.66;4994196;28;20421;-82
2022/12/24 09:14:31;;;;;;;102.07;10.43;;;;;;;9.88;100.00;100832.69;4991210;28;20038;-82
2022/12/24 09:16:58;;;;;;;101.82;9.60;;;;;;;9.88;100.00;100845.50;4959635;28;20528;-80
2022/12/24 09:19:23;;;;;;;110.05;9.57;;;;;;;9.86;100.00;100848.34;4977489;28;20035;-81
2022/12/24 09:21:49;;;;;;;101.97;8.85;;;;;;;9.98;100.00;100854.72;4957215;28;20557;-80
2022/12/24 09:24:14;;;;;;;88.10;8.25;;;;;;;10.03;100.00;100868.91;4980575;28;20074;-81
2022/12/24 09:26:40;;;;;;;104.82;9.25;;;;;;;10.03;100.00;100862.59;4997129;28;20045;-81
2022/12/24 09:29:06;;;;;;;103.78;9.35;;;;;;;10.19;100.00;100875.97;4996903;28;20066;-81
2022/12/24 09:31:32;;;;;;;108.70;10.52;;;;;;;10.17;100.00;100872.47;4996387;28;20034;-81
2022/12/24 09:33:58;;;;;;;121.93;12.80;;;;;;;10.22;100.00;100884.78;4980336;28;20042;-82
2022/12/24 09:36:23;;;;;;;79.15;9.27;;;;;;;10.17;100.00;100884.28;4995689;28;20034;-81
2022/12/24 09:38:49;;;;;;;100.75;9.55;;;;;;;10.42;100.00;100901.56;4979189;28;20393;-81
2022/12/24 09:41:43;;;;;;;100.95;9.32;;;;;;;10.40;100.00;100895.34;4996148;28;20042;-81
2022/12/24 09:44:30;;;;;;;98.18;10.57;;;;;;;10.45;100.00;100904.06;4995335;28;20034;-81
2022/12/24 09:47:01;;;;;;;106.57;10.60;;;;;;;10.50;100.00;100904.59;4994805;28;20058;-81
2022/12/24 09:49:40;;;;;;;108.32;12.52;;;;;;;10.56;100.00;100909.59;4993022;28;20034;-81
2022/12/24 09:52:13;;;;;;;123.28;10.63;;;;;;;10.51;100.00;100911.81;4978367;28;20129;-81
2022/12/24 09:54:44;;;;;;;103.00;8.95;;;;;;;10.60;100.00;100913.81;4979059;28;20033;-80
2022/12/24 09:57:30;;;;;;;92.82;9.52;;;;;;;10.64;100.00;100912.59;4978121;28;20038;-80
2022/12/24 09:59:55;;;;;;;89.20;9.45;;;;;;;10.52;100.00;100916.28;4978488;28;20038;-80
2022/12/24 10:02:21;;;;;;;124.05;10.68;;;;;;;10.46;100.00;100919.47;4990236;28;20034;-81
2022/12/24 10:04:47;;;;;;;105.60;11.40;;;;;;;10.58;100.00;100931.38;4963497;28;20049;-80
2022/12/24 10:07:40;;;;;;;106.85;10.13;;;;;;;10.59;100.00;100934.00;4996348;28;20490;-81
2022/12/24 10:10:28;;;;;;;85.25;10.85;;;;;;;10.57;100.00;100944.16;4995233;28;20441;-81
2022/12/24 10:13:22;;;;;;;102.80;9.90;;;;;;;10.64;100.00;100933.59;4987255;28;20035;-81
2022/12/24 10:15:53;;;;;;;103.97;11.20;;;;;;;10.62;100.00;100935.59;4983784;28;20038;-81
2022/12/24 10:18:54;;;;;;;112.38;13.68;;;;;;;10.67;100.00;100941.59;4990777;28;20039;-80
2022/12/24 10:21:57;;;;;;;117.95;11.27;;;;;;;10.63;100.00;100935.47;4995845;28;20076;-81
2022/12/24 10:24:22;;;;;;;89.43;8.75;;;;;;;10.57;100.00;100940.56;4996904;28;20072;-81
2022/12/24 10:26:56;;;;;;;108.18;10.70;;;;;;;10.57;100.00;100933.22;4994948;28;20417;-80
2022/12/24 10:29:37;;;;;;;132.82;11.98;;;;;;;10.63;100.00;100940.09;4994191;28;20045;-80
2022/12/24 10:32:06;;;;;;;111.72;15.20;;;;;;;10.66;100.00;100937.97;4995195;28;20084;-80
2022/12/24 10:34:40;;;;;;;106.05;10.77;;;;;;;10.74;100.00;100928.28;4995346;28;20045;-80
2022/12/24 10:37:09;;;;;;;121.50;10.10;;;;;;;10.73;100.00;100941.09;4978014;28;20038;-80
2022/12/24 10:39:34;;;;;;;110.97;11.93;;;;;;;10.76;100.00;100929.06;4994477;28;20556;-80
2022/12/24 10:42:00;;;;;;;141.13;15.40;;;;;;;10.76;100.00;100932.66;4949831;28;20039;-80
2022/12/24 10:44:29;;;;;;;98.57;11.57;;;;;;;10.78;100.00;100936.13;4975705;28;20043;-80
2022/12/24 10:46:55;;;;;;;102.38;10.27;;;;;;;10.78;100.00;100932.53;4991320;28;20081;-81
2022/12/24 10:49:44;;;;;;;127.25;13.77;;;;;;;10.88;100.00;100939.03;4978064;28;20038;-80
2022/12/24 10:52:12;;;;;;;102.78;10.52;;;;;;;10.92;100.00;100936.91;4977793;28;20135;-81
2022/12/24 10:55:19;;;;;;;95.82;10.30;;;;;;;10.88;100.00;100946.38;4988037;28;20031;-81
2022/12/24 10:57:55;;;;;;;93.78;10.63;;;;;;;10.98;100.00;100930.94;4977116;28;20512;-80
2022/12/24 11:00:22;;;;;;;127.00;13.98;;;;;;;10.91;100.00;100926.97;4976198;28;20553;-81
2022/12/24 11:03:04;;;;;;;117.93;11.70;;;;;;;10.84;100.00;100926.59;4960793;28;20030;-81
2022/12/24 11:05:34;;;;;;;95.38;10.77;;;;;;;10.94;100.00;100924.00;4986897;28;20078;-81
2022/12/24 11:08:13;;;;;;;79.00;10.93;;;;;;;11.14;100.00;100925.13;4988230;28;20035;-81
2022/12/24 11:10:43;;;;;;;91.30;11.35;;;;;;;11.33;100.00;100930.88;4972344;28;20053;-81
2022/12/24 11:13:29;;;;;;;77.00;8.65;;;;;;;11.40;100.00;100926.59;4994459;28;20501;-81
2022/12/24 11:16:06;;;;;;;92.38;11.63;;;;;;;11.47;100.00;100939.81;4971464;28;20482;-81
2022/12/24 11:18:43;;;;;;;96.47;10.80;;;;;;;11.31;100.00;100930.09;4992592;28;20065;-81
2022/12/24 11:21:08;;;;;;;87.38;10.63;;;;;;;11.01;100.00;100930.72;4993502;28;20544;-81